Weather History for Big Rapids, MI

Change the Weather History Date:

Monday, April 28, 2014

  Actual Average Record
Temperature  
Mean Temperature 47 °F -  
Max Temperature 53 °F 60 °F 78 °F (1986)
Min Temperature 41 °F 37 °F 21 °F (2006)
Degree Days  
Heating Degree Days 18    
Moisture  
Dew Point 29 °F    
Average Humidity 51    
Maximum Humidity 63    
Minimum Humidity 41    
Precipitation  
Precipitation 0.00 in - - ()
Sea Level Pressure  
Sea Level Pressure 29.93 in    
Wind  
Wind Speed 18 mph (East)    
Max Wind Speed 30 mph    
Max Gust Speed 44 mph    
Visibility 10 miles    
Events Rain    
Averages and records for this station are not official NWS values.
T = Trace of Precipitation, MM = Missing Value Source: NWS Daily Summary

Daily Weather History Graph

Daily Weather History Graph

Search for Another Location

Airport:

Trip Planner

Search our weather history database for the weather conditions in past years. The results will help you decide how hot, cold, wet, or windy it might be!

Date:

Astronomy

Apr. 28, 2014 Rise Set
Actual Time 6:38 AM EDT 8:41 PM EDT
Civil Twilight 6:07 AM EDT 9:12 PM EDT
Nautical Twilight 5:29 AM EDT 9:50 PM EDT
Astronomical Twilight 4:47 AM EDT 10:33 PM EDT
Moon 6:18 AM EDT (4/28) 8:17 PM EDT (4/28)
Length of Visible Light 15h 04m
Length of Day
14h 02m
Waning Crescent, 0% of the Moon is Illuminated
Apr 28
Waning Crescent
Apr 29
New
May 6
First Quarter
May 14
Full
May 21
Last Quarter

Hourly Weather History & Observations

Time (EDT) Temp. Windchill Dew Point Humidity Pressure Visibility Wind Dir Wind Speed Gust Speed Precip Events Conditions
12:15 AM 41.9 °F 33.7 °F 25.7 °F 53% 30.05 in 10.0 mi East 17.3 mph 21.9 mph N/A   Clear
12:34 AM 41.4 °F 33.3 °F 25.7 °F 54% 30.04 in 10.0 mi East 16.1 mph 21.9 mph N/A   Clear
12:55 AM 41.7 °F 33.4 °F 25.7 °F 53% 30.05 in 10.0 mi East 17.3 mph 23.0 mph N/A   Clear
1:14 AM 41.4 °F 34.0 °F 25.9 °F 54% 30.06 in 10.0 mi East 13.8 mph - N/A   Clear
1:34 AM 41.5 °F 33.8 °F 26.2 °F 55% 30.05 in 10.0 mi East 15.0 mph 25.3 mph N/A   Clear
1:55 AM 41.7 °F 34.4 °F 26.2 °F 54% 30.03 in 10.0 mi East 13.8 mph 23.0 mph N/A   Clear
2:14 AM 42.1 °F 35.7 °F 26.1 °F 53% 30.04 in 10.0 mi East 11.5 mph 23.0 mph N/A   Clear
2:35 AM 42.3 °F 34.4 °F 25.7 °F 52% 30.04 in 10.0 mi East 16.1 mph 26.5 mph N/A   Clear
2:55 AM 42.1 °F 35.2 °F 25.7 °F 52% 30.04 in 10.0 mi East 12.7 mph 21.9 mph N/A   Scattered Clouds
3:14 AM 42.3 °F 34.1 °F 26.4 °F 54% 30.04 in 10.0 mi ESE 17.3 mph 23.0 mph N/A   Scattered Clouds
3:35 AM 42.8 °F 34.5 °F 26.8 °F 53% 30.04 in 10.0 mi East 18.4 mph 21.9 mph N/A   Mostly Cloudy
4:14 AM 42.8 °F 35.4 °F 27.1 °F 54% 30.02 in 10.0 mi East 15.0 mph 19.6 mph N/A   Scattered Clouds
4:35 AM 42.4 °F 35.0 °F 27.3 °F 55% 30.02 in 10.0 mi East 15.0 mph 20.7 mph N/A   Scattered Clouds
4:54 AM 42.3 °F 34.4 °F 27.5 °F 56% 30.02 in 10.0 mi ESE 16.1 mph 25.3 mph N/A   Clear
5:14 AM 41.9 °F 34.6 °F 28.0 °F 58% 30.01 in 10.0 mi East 13.8 mph 25.3 mph N/A   Clear
5:35 AM 41.5 °F 34.2 °F 28.4 °F 60% 30.00 in 10.0 mi East 13.8 mph - N/A   Clear
5:54 AM 41.2 °F 34.1 °F 29.1 °F 62% 30.01 in 10.0 mi East 12.7 mph - N/A   Clear
6:14 AM 41.2 °F 34.1 °F 29.3 °F 63% 30.01 in 10.0 mi East 12.7 mph - N/A   Clear
6:35 AM 41.4 °F 34.7 °F 29.3 °F 62% 30.01 in 10.0 mi East 11.5 mph 17.3 mph N/A   Scattered Clouds
6:54 AM 41.4 °F 33.6 °F 29.5 °F 63% 30.00 in 10.0 mi East 15.0 mph 23.0 mph N/A   Scattered Clouds
7:14 AM 41.5 °F 33.8 °F 29.3 °F 62% 30.00 in 10.0 mi East 15.0 mph 25.3 mph N/A   Clear
7:35 AM 41.9 °F 34.3 °F 29.1 °F 61% 30.00 in 10.0 mi ESE 15.0 mph 24.2 mph N/A   Clear
7:54 AM 42.6 °F 35.2 °F 28.6 °F 58% 29.99 in 10.0 mi ESE 15.0 mph 26.5 mph N/A   Clear
8:35 AM 43.9 °F 37.5 °F 29.7 °F 57% 29.98 in 10.0 mi ESE 12.7 mph 20.7 mph N/A   Clear
8:54 AM 45.3 °F 37.6 °F 29.8 °F 55% 29.98 in 10.0 mi ESE 19.6 mph 27.6 mph N/A   Clear
9:15 AM 46.4 °F 38.5 °F 29.8 °F 53% 29.98 in 10.0 mi ESE 21.9 mph 28.8 mph N/A   Clear
9:34 AM 47.5 °F - 30.6 °F 52% 29.97 in 10.0 mi East 24.2 mph 42.6 mph N/A   Clear
9:55 AM 48.2 °F - 30.4 °F 50% 29.97 in 10.0 mi ESE 23.0 mph 32.2 mph N/A   Clear
10:14 AM 49.6 °F - 31.3 °F 49% 29.96 in 10.0 mi East 24.2 mph 28.8 mph N/A   Clear
10:55 AM 52.0 °F - 30.4 °F 44% 29.96 in 10.0 mi ESE 26.5 mph 40.3 mph N/A   Clear
11:14 AM 53.1 °F - 30.0 °F 41% 29.97 in 10.0 mi East 29.9 mph 38.0 mph N/A   Clear
11:35 AM 53.4 °F - 31.1 °F 43% 29.96 in 10.0 mi East 23.0 mph 32.2 mph N/A   Scattered Clouds
11:55 AM 52.7 °F - 30.7 °F 43% 29.96 in 10.0 mi East 28.8 mph 36.8 mph N/A   Mostly Cloudy
12:14 PM 53.1 °F - 30.6 °F 42% 29.95 in 10.0 mi ESE 27.6 mph 36.8 mph N/A   Scattered Clouds
12:35 PM 52.7 °F - 30.2 °F 42% 29.93 in 10.0 mi ESE 26.5 mph 40.3 mph N/A   Clear
12:55 PM 52.5 °F - 31.5 °F 45% 29.91 in 10.0 mi East 24.2 mph 36.8 mph N/A   Clear
1:35 PM 52.7 °F - 30.4 °F 42% 29.89 in 10.0 mi East 21.9 mph 41.4 mph N/A   Clear
1:54 PM 52.7 °F - 30.9 °F 43% 29.89 in 10.0 mi East 27.6 mph 33.4 mph N/A   Scattered Clouds
2:14 PM 51.8 °F - 31.5 °F 46% 29.89 in 10.0 mi East 29.9 mph 43.7 mph N/A   Overcast
2:35 PM 50.9 °F - 32.0 °F 48% 29.88 in 10.0 mi East 27.6 mph 35.7 mph N/A   Overcast
2:54 PM 49.8 °F - 32.9 °F 52% 29.88 in 10.0 mi East 21.9 mph 36.8 mph N/A Rain Light Rain
3:15 PM 49.3 °F - 32.9 °F 53% 29.87 in 10.0 mi East 25.3 mph 33.4 mph N/A Rain Light Rain
3:54 PM 49.1 °F - 34.2 °F 56% 29.86 in 10.0 mi East 18.4 mph 24.2 mph N/A   Overcast
4:15 PM 49.3 °F - 33.4 °F 54% 29.86 in 10.0 mi East 20.7 mph 33.4 mph N/A   Overcast
4:34 PM 50.2 °F - 32.9 °F 52% 29.87 in 10.0 mi East 21.9 mph 31.1 mph N/A   Overcast
5:15 PM 50.0 °F - 31.5 °F 49% 29.86 in 10.0 mi East 15.0 mph 36.8 mph N/A   Overcast
5:34 PM 50.0 °F - 32.0 °F 50% 29.87 in 10.0 mi East 15.0 mph 33.4 mph N/A   Overcast
5:55 PM 50.0 °F - 31.3 °F 49% 29.86 in 10.0 mi East 21.9 mph 32.2 mph N/A   Overcast
6:15 PM 50.0 °F - 30.7 °F 48% 29.85 in 10.0 mi ESE 25.3 mph 35.7 mph N/A   Overcast
6:34 PM 49.5 °F - 30.9 °F 49% 29.84 in 10.0 mi East 19.6 mph 27.6 mph N/A   Overcast
6:55 PM 48.9 °F - 29.5 °F 47% 29.83 in 10.0 mi East 28.8 mph 34.5 mph N/A   Overcast
7:15 PM 48.6 °F - 29.1 °F 47% 29.81 in 10.0 mi East 17.3 mph 31.1 mph N/A   Overcast
7:34 PM 48.4 °F - 29.3 °F 48% 29.81 in 10.0 mi East 19.6 mph 28.8 mph N/A   Overcast
7:55 PM 48.4 °F - 29.1 °F 47% 29.81 in 10.0 mi East 20.7 mph 31.1 mph N/A   Overcast
8:15 PM 48.4 °F - 29.1 °F 47% 29.81 in 10.0 mi East 18.4 mph 26.5 mph N/A   Overcast
8:34 PM 48.4 °F - 29.1 °F 47% 29.81 in 10.0 mi East 13.8 mph 26.5 mph N/A   Overcast
8:55 PM 48.4 °F - 29.1 °F 47% 29.81 in 10.0 mi East 18.4 mph 25.3 mph N/A   Overcast
9:15 PM 48.4 °F - 29.3 °F 48% 29.82 in 10.0 mi East 20.7 mph 25.3 mph N/A   Overcast
9:34 PM 48.6 °F - 29.7 °F 48% 29.83 in 10.0 mi East 15.0 mph 27.6 mph N/A   Overcast
9:55 PM 49.1 °F - 29.3 °F 46% 29.82 in 10.0 mi East 18.4 mph 27.6 mph N/A   Overcast
10:15 PM 48.7 °F - 29.5 °F 47% 29.81 in 10.0 mi East 15.0 mph 23.0 mph N/A   Overcast
10:34 PM 49.1 °F - 29.5 °F 47% 29.82 in 10.0 mi East 18.4 mph 26.5 mph N/A   Overcast
10:55 PM 48.7 °F - 29.5 °F 47% 29.80 in 10.0 mi East 16.1 mph 27.6 mph N/A   Overcast
11:15 PM 49.1 °F - 29.5 °F 47% 29.78 in 10.0 mi East 15.0 mph 27.6 mph N/A   Overcast
11:34 PM 48.9 °F - 30.0 °F 48% 29.78 in 10.0 mi East 19.6 mph 33.4 mph N/A   Overcast
11:55 PM 48.6 °F - 30.7 °F 50% 29.79 in 10.0 mi ESE 15.0 mph 32.2 mph N/A   Overcast